• Join FlightAware (Why Join?)
  • Login
  • US Flag 
10:23AM EDT


 

Airport Tracker/Info


-or-


 

Live Flight TrackerFlight Track Log ✈ UAL4695 ✈ 15-May-2013 ✈ KEWR - KMHT

Flight Track Log - Related Links

Times and Time Zones

All times are in EDT time to prevent confusion due to time zone crossing. See the UAL4695 flight status page for this flight to view local times or setup timezone preferences in your user account.

Time Position Orientation Groundspeed Altitude Reporting Facility
EDT Latitude Longitude Course Direction KTS MPH feet Rate Location/Type
09:48PM 40.6500 -74.2000 217° Southwest 161 185 2,500  Level New York TRACON
09:49PM 40.7167 -74.2000 360° North 272 313 4,700 2,460 Climbing New York TRACON
09:50PM 40.9000 -73.9282 90° East  Level FlightAware Approximate
09:50PM 40.7667 -74.1333 45° Northeast 283 326 7,500  Level New York TRACON
09:51PM 40.9710 -73.8456 37° Northeast  Level FlightAware Approximate
09:51PM 40.8167 -74.0667 45° Northeast 287 330 9,700  Level New York TRACON
09:52PM 41.0469 -73.7640 40° Northeast  Level FlightAware Approximate
09:52PM 40.8833 -74.0000 37° Northeast 343 395 10,000  Level New York TRACON
09:53PM 41.1146 -73.6878 40° Northeast  Level FlightAware Approximate
09:53PM 40.9667 -73.9167 37° Northeast 327 376 10,000  Level New York TRACON
09:54PM 41.0167 -73.8500 45° Northeast 310 357 12,300 2,100 Climbing New York TRACON
09:56PM 41.1364 -73.7133 41° Northeast 317 365 15,700 1,560 Climbing Boston Center
09:57PM 41.2083 -73.6319 40° Northeast 325 374 16,700 1,020 Climbing Boston Center
09:58PM 41.2864 -73.5422 41° Northeast 355 409 17,800 1,080 Climbing Boston Center
09:59PM 41.3600 -73.4550 42° Northeast 378 435 18,900 1,020 Climbing Boston Center
10:00PM 41.4464 -73.3539 41° Northeast 392 451 19,900 1,020 Climbing Boston Center
10:01PM 41.5553 -73.2944 22° Northeast 388 447 21,000 540 Climbing Boston Center
10:02PM 41.6678 -73.2933 360° North 373 429 21,000  Level Boston Center
10:03PM 41.7844 -73.2892 North 395 455 21,000  Level Boston Center
10:04PM 41.8992 -73.2853 North 405 466 21,000  Level Boston Center
10:05PM 42.0139 -73.2839 North 405 466 21,000  Level Boston Center
10:06PM 42.1181 -73.2825 North 405 466 21,000  Level Boston Center
10:07PM 42.2347 -73.2644 North 405 466 21,000 -180 Level Boston Center
10:08PM 42.3294 -73.1561 40° Northeast 405 466 20,700 -600 Descending Boston Center
10:09PM 42.4072 -72.9997 56° Northeast 443 510 19,900 -780 Descending Boston Center
10:10PM 42.4850 -72.8539 54° Northeast 455 524 19,200 -480 Descending Boston Center
10:11PM 42.5689 -72.7050 53° Northeast 455 524 19,000 -300 Descending Boston Center
10:12PM 42.6381 -72.5558 58° Northeast 455 524 18,600 -1,740 Descending Boston Center
10:13PM 42.6858 -72.4006 67° East 455 524 15,600 -2,880 Descending Boston Center
10:14PM 42.7275 -72.2450 70° East 439 505 12,900 -2,280 Descending Boston Center
10:15PM 42.7667 -72.1206 67° East 413 475 11,100 -1,500 Descending Boston Center
10:16PM 42.8269 -72.0069 54° Northeast 346 398 10,000 -1,200 Descending Boston Center
10:17PM 42.8806 -71.9189 50° Northeast 311 358 8,700 -1,560 Descending Boston Center
10:18PM 42.9344 -71.8275 51° Northeast 300 345 6,900 -1,620 Descending Boston Center
10:19PM 42.9839 -71.7392 53° Northeast 300 345 5,500 -1,680 Descending Boston Center
10:20PM 43.0292 -71.6561 53° Northeast 284 327 3,600 -1,500 Descending Boston Center
10:21PM 43.0514 -71.5564 73° East 268 308 2,500 -660 Descending Boston Center
10:22PM 43.0217 -71.4889 121° Southeast 212 244 2,300 -660 Descending Boston Center
10:23PM 42.9797 -71.4639 156° South 170 196 1,200 -960 Descending Boston Center
10:24PM 42.9464 -71.4444 157° South 142 163 400 -420 Descending Boston Center
10:25PM 42.9128 -71.4194 151° Southeast 142 163 400 8,400 Level Boston Center
10:26PM 42.8686 -71.3947 158° South 142 163 19,000 8,400 Climbing Boston Center
10:27PM 42.8331 -71.3756 158° South 142 163 19,000  Level Boston Center
10:28PM 42.8039 -71.3592 158° South 142 163 19,000  Level Boston Center